Time;durP1;ratioP1;P1;durP2;ratioP2;P2;SDS_P1;SDS_P2;PMS_P1;PMS_P2;Temp;Humidity;BMP_temperature;BMP_pressure;BME280_temperature;BME280_humidity;BME280_pressure;Samples;Min_cycle;Max_cycle;Signal;HPM_P1;HPM_P2
2022/08/31 00:05:05;;;;;;;;;;;22.80;77.50;;;;;;5077534;28;19970;-96
2022/08/31 00:07:33;;;;;;;;;;;22.80;76.90;;;;;;5077890;28;19938;-96
2022/08/31 00:09:59;;;;;;;;;;;22.80;76.70;;;;;;5077701;28;19990;-96
2022/08/31 00:12:25;;;;;;;;;;;22.70;76.60;;;;;;5077414;28;19972;-96
2022/08/31 00:14:50;;;;;;;;;;;22.70;77.30;;;;;;5077923;28;19947;-95
2022/08/31 00:17:16;;;;;;;;;;;22.60;77.30;;;;;;5077454;28;19938;-96
2022/08/31 00:19:42;;;;;;;;;;;22.50;77.50;;;;;;5077312;28;19942;-96
2022/08/31 00:22:07;;;;;;;;;;;22.30;77.50;;;;;;5059124;28;19947;-96
2022/08/31 00:24:33;;;;;;;;;;;22.30;77.10;;;;;;5077255;28;20350;-96
2022/08/31 00:26:59;;;;;;;;;;;22.30;76.70;;;;;;5076870;28;19952;-96
2022/08/31 00:29:24;;;;;;;;;;;22.20;77.00;;;;;;5077065;28;19966;-96
2022/08/31 00:31:50;;;;;;;;;;;22.20;77.70;;;;;;5077049;28;19941;-96
2022/08/31 00:34:15;;;;;;;;;;;22.10;78.30;;;;;;5058782;28;20104;-96
2022/08/31 00:36:41;;;;;;;;;;;22.00;78.80;;;;;;5077032;28;20388;-96
2022/08/31 00:39:07;;;;;;;;;;;21.90;79.70;;;;;;5077012;28;19941;-96
2022/08/31 00:41:34;;;;;;;;;;;21.80;79.90;;;;;;5076511;28;19984;-96
2022/08/31 00:44:02;;;;;;;;;;;21.80;80.30;;;;;;5077030;28;19941;-96
2022/08/31 00:46:29;;;;;;;;;;;21.60;81.00;;;;;;5075988;28;19942;-96
2022/08/31 00:48:57;;;;;;;;;;;21.60;81.70;;;;;;5076650;28;19939;-95
2022/08/31 00:51:24;;;;;;;;;;;21.40;82.10;;;;;;5076222;28;19938;-96
2022/08/31 00:53:50;;;;;;;;;;;21.30;83.00;;;;;;5076413;28;19955;-96
2022/08/31 00:56:16;;;;;;;;;;;21.20;83.30;;;;;;5076615;28;19940;-95
2022/08/31 00:58:42;;;;;;;;;;;21.20;83.10;;;;;;5076128;28;19994;-95
2022/08/31 01:01:07;;;;;;;;;;;21.20;82.70;;;;;;5076431;28;20044;-95
2022/08/31 01:03:33;;;;;;;;;;;21.20;82.70;;;;;;5076019;28;19985;-96
2022/08/31 01:05:59;;;;;;;;;;;21.20;82.30;;;;;;5058023;28;19944;-96
2022/08/31 01:08:25;;;;;;;;;;;21.10;82.50;;;;;;5058026;28;19963;-96
2022/08/31 01:10:50;;;;;;;;;;;21.10;82.70;;;;;;5076506;28;20387;-96
2022/08/31 01:13:16;;;;;;;;;;;21.10;82.90;;;;;;5075711;28;19977;-96
2022/08/31 01:15:48;;;;;;;;;;;21.10;82.80;;;;;;5076058;28;19991;-96
2022/08/31 01:18:14;;;;;;;;;;;21.10;82.90;;;;;;5057844;28;19946;-96
2022/08/31 01:20:45;;;;;;;;;;;21.10;82.80;;;;;;5076013;28;20388;-96
2022/08/31 01:23:25;;;;;;;;;;;21.10;82.90;;;;;;5075662;28;19943;-96
2022/08/31 01:25:51;;;;;;;;;;;21.00;83.10;;;;;;5075889;28;20031;-96
2022/08/31 01:28:17;;;;;;;;;;;20.80;83.40;;;;;;5075566;28;20053;-95
2022/08/31 01:30:43;;;;;;;;;;;20.80;83.90;;;;;;5075828;28;20308;-95
2022/08/31 01:33:10;;;;;;;;;;;20.70;83.90;;;;;;5075415;28;19964;-96
2022/08/31 01:35:35;;;;;;;;;;;20.70;83.70;;;;;;5075674;28;20393;-95
2022/08/31 01:38:01;;;;;;;;;;;20.70;83.00;;;;;;5075323;28;19941;-96
2022/08/31 01:40:32;;;;;;;;;;;20.70;83.40;;;;;;5075634;28;20290;-96
2022/08/31 01:42:58;;;;;;;;;;;20.70;83.20;;;;;;5075239;28;19935;-96
2022/08/31 01:45:23;;;;;;;;;;;20.70;83.00;;;;;;5057208;28;19972;-95
2022/08/31 01:47:49;;;;;;;;;;;20.70;83.10;;;;;;5075717;28;19941;-96
2022/08/31 01:50:14;;;;;;;;;;;20.70;83.20;;;;;;5075109;28;19942;-96
2022/08/31 01:52:40;;;;;;;;;;;20.70;83.40;;;;;;5075321;28;20387;-95
2022/08/31 01:55:06;;;;;;;;;;;20.70;83.30;;;;;;5075293;28;20002;-95
2022/08/31 01:57:31;;;;;;;;;;;20.70;83.10;;;;;;5074302;28;19948;-96
2022/08/31 02:00:06;;;;;;;;;;;20.80;83.40;;;;;;5074869;28;19941;-95
2022/08/31 02:02:31;;;;;;;;;;;20.80;83.60;;;;;;5075403;28;19939;-96
2022/08/31 02:04:57;;;;;;;;;;;20.80;83.80;;;;;;5075118;28;19960;-96
2022/08/31 02:07:24;;;;;;;;;;;20.80;84.70;;;;;;5075331;28;19962;-95
2022/08/31 02:09:49;;;;;;;;;;;20.80;84.90;;;;;;5075032;28;19939;-96
2022/08/31 02:12:15;;;;;;;;;;;20.70;85.30;;;;;;5074768;28;20404;-96
2022/08/31 02:14:41;;;;;;;;;;;20.60;85.60;;;;;;5074997;28;19947;-96
2022/08/31 02:17:07;;;;;;;;;;;20.60;85.90;;;;;;5074887;28;19949;-96
2022/08/31 02:19:33;;;;;;;;;;;20.60;86.40;;;;;;5074870;28;19960;-95
2022/08/31 02:21:59;;;;;;;;;;;20.70;86.20;;;;;;5074530;28;19946;-95
2022/08/31 02:24:25;;;;;;;;;;;20.70;86.70;;;;;;5075030;28;20372;-96
2022/08/31 02:26:50;;;;;;;;;;;20.70;86.30;;;;;;5056518;28;19933;-95
2022/08/31 02:29:16;;;;;;;;;;;20.60;86.00;;;;;;5074633;28;19937;-95
2022/08/31 02:31:42;;;;;;;;;;;20.50;86.20;;;;;;5074339;28;19935;-96
2022/08/31 02:34:08;;;;;;;;;;;20.30;86.80;;;;;;5074257;28;20318;-94
2022/08/31 02:36:33;;;;;;;;;;;20.10;87.30;;;;;;5074335;28;20447;-95
2022/08/31 02:38:59;;;;;;;;;;;19.90;87.90;;;;;;5056758;28;20409;-95
2022/08/31 02:41:25;;;;;;;;;;;19.80;88.50;;;;;;5074261;28;19946;-95
2022/08/31 02:43:50;;;;;;;;;;;19.70;89.00;;;;;;5074428;28;19981;-96
2022/08/31 02:46:16;;;;;;;;;;;19.70;89.30;;;;;;5074151;28;19944;-94
2022/08/31 02:48:41;;;;;;;;;;;19.70;89.70;;;;;;5074643;28;19941;-95
2022/08/31 02:51:08;;;;;;;;;;;19.80;90.10;;;;;;5074369;28;19941;-96
2022/08/31 02:53:34;;;;;;;;;;;19.80;90.10;;;;;;5073956;28;19959;-95
2022/08/31 02:56:00;;;;;;;;;;;19.80;90.20;;;;;;5074311;28;19941;-96
2022/08/31 02:58:25;;;;;;;;;;;19.90;90.60;;;;;;5074035;28;19948;-96
2022/08/31 03:00:51;;;;;;;;;;;19.90;90.40;;;;;;5074273;28;19937;-96
2022/08/31 03:03:17;;;;;;;;;;;19.90;90.10;;;;;;5073970;28;19948;-95
2022/08/31 03:05:42;;;;;;;;;;;19.80;90.00;;;;;;5074504;28;20297;-95
2022/08/31 03:08:08;;;;;;;;;;;19.80;89.80;;;;;;5073721;28;19938;-96
2022/08/31 03:10:33;;;;;;;;;;;19.80;89.90;;;;;;5074160;28;20344;-94
2022/08/31 03:12:59;;;;;;;;;;;19.80;90.10;;;;;;5073598;28;19985;-95
2022/08/31 03:15:25;;;;;;;;;;;19.80;90.20;;;;;;5074123;28;20023;-95
2022/08/31 03:17:51;;;;;;;;;;;19.80;90.40;;;;;;5073782;28;20040;-96
2022/08/31 03:20:17;;;;;;;;;;;19.80;90.50;;;;;;5074129;28;20306;-95
2022/08/31 03:22:43;;;;;;;;;;;19.80;90.80;;;;;;5073801;28;19989;-95
2022/08/31 03:25:09;;;;;;;;;;;19.90;91.50;;;;;;5074011;28;19947;-95
2022/08/31 03:27:36;;;;;;;;;;;19.90;91.50;;;;;;5073765;28;19935;-95
2022/08/31 03:30:02;;;;;;;;;;;19.80;91.50;;;;;;5073967;28;19941;-95
2022/08/31 03:32:29;;;;;;;;;;;19.90;91.70;;;;;;5055606;28;19967;-96
2022/08/31 03:34:56;;;;;;;;;;;19.90;91.70;;;;;;5073949;28;19946;-95
2022/08/31 03:37:21;;;;;;;;;;;19.90;91.50;;;;;;5073577;28;19962;-95
2022/08/31 03:39:47;;;;;;;;;;;20.00;91.10;;;;;;5073920;28;19989;-95
2022/08/31 03:42:13;;;;;;;;;;;20.00;90.90;;;;;;5073559;28;19936;-95
2022/08/31 03:44:38;;;;;;;;;;;20.00;90.90;;;;;;5073858;28;20014;-96
2022/08/31 03:47:04;;;;;;;;;;;19.90;90.70;;;;;;5073794;28;20390;-95
2022/08/31 03:49:30;;;;;;;;;;;19.90;90.70;;;;;;5074039;28;19996;-95
2022/08/31 03:51:55;;;;;;;;;;;19.90;90.60;;;;;;5073791;28;19946;-94
2022/08/31 03:54:21;;;;;;;;;;;19.90;90.40;;;;;;5073673;28;20420;-95
2022/08/31 03:56:46;;;;;;;;;;;19.90;90.20;;;;;;5073439;28;19965;-96
2022/08/31 03:59:12;;;;;;;;;;;19.90;90.00;;;;;;5073306;28;19939;-95
2022/08/31 04:01:38;;;;;;;;;;;19.80;89.70;;;;;;5055379;28;20309;-95
2022/08/31 04:04:04;;;;;;;;;;;19.80;89.90;;;;;;5073623;28;19965;-95
2022/08/31 04:06:29;;;;;;;;;;;19.80;90.00;;;;;;5073331;28;19997;-94
2022/08/31 04:08:55;;;;;;;;;;;19.80;90.00;;;;;;5073599;28;19947;-96
2022/08/31 04:11:21;;;;;;;;;;;19.80;90.20;;;;;;5073566;28;19966;-96
2022/08/31 04:13:47;;;;;;;;;;;19.90;90.20;;;;;;5073073;28;19975;-96
2022/08/31 04:16:14;;;;;;;;;;;19.80;90.20;;;;;;5073505;28;19961;-95
2022/08/31 04:18:40;;;;;;;;;;;19.80;90.20;;;;;;5073247;28;19941;-96
2022/08/31 04:21:23;;;;;;;;;;;19.80;90.50;;;;;;5075725;28;19945;-94
2022/08/31 04:23:49;;;;;;;;;;;19.90;90.50;;;;;;5058853;28;20037;-95
2022/08/31 04:26:19;;;;;;;;;;;19.90;90.20;;;;;;5077028;28;19943;-95
2022/08/31 04:28:45;;;;;;;;;;;19.80;90.50;;;;;;5077006;28;20016;-95
2022/08/31 04:31:10;;;;;;;;;;;19.80;90.70;;;;;;5058761;28;19943;-95
2022/08/31 04:33:37;;;;;;;;;;;19.80;90.50;;;;;;5076794;28;20045;-96
2022/08/31 04:36:11;;;;;;;;;;;19.80;90.60;;;;;;5076500;28;19955;-95
2022/08/31 04:38:36;;;;;;;;;;;19.70;90.50;;;;;;5077108;28;19986;-96
2022/08/31 04:41:04;;;;;;;;;;;19.80;90.50;;;;;;5076658;28;20010;-96
2022/08/31 04:43:29;;;;;;;;;;;19.80;90.60;;;;;;5076733;28;20469;-96
2022/08/31 04:45:55;;;;;;;;;;;20.00;90.40;;;;;;5076365;28;19951;-95
2022/08/31 04:48:20;;;;;;;;;;;20.00;90.30;;;;;;5076633;28;20293;-96
2022/08/31 04:50:49;;;;;;;;;;;20.00;90.10;;;;;;5076342;28;20024;-95
2022/08/31 04:53:15;;;;;;;;;;;20.00;89.70;;;;;;5076472;28;20312;-96
2022/08/31 04:55:41;;;;;;;;;;;20.00;89.60;;;;;;5076484;28;19937;-96
2022/08/31 04:58:07;;;;;;;;;;;20.00;89.80;;;;;;5075993;28;19944;-95
2022/08/31 05:00:33;;;;;;;;;;;20.00;90.10;;;;;;5076100;28;19944;-96
2022/08/31 05:02:58;;;;;;;;;;;20.20;90.70;;;;;;5076131;28;19987;-96
2022/08/31 05:05:24;;;;;;;;;;;20.30;90.30;;;;;;5076354;28;19992;-96
2022/08/31 05:07:49;;;;;;;;;;;20.30;89.60;;;;;;5058036;28;19947;-96
2022/08/31 05:10:15;;;;;;;;;;;20.30;89.40;;;;;;5076056;28;19939;-96
2022/08/31 05:12:40;;;;;;;;;;;20.30;89.00;;;;;;5054403;28;20332;-95
2022/08/31 05:15:06;;;;;;;;;;;20.30;88.90;;;;;;5055924;28;19945;-95
2022/08/31 05:17:32;;;;;;;;;;;20.30;88.50;;;;;;5055743;28;20398;-96
2022/08/31 05:19:57;;;;;;;;;;;20.30;88.40;;;;;;5055610;28;20422;-95
2022/08/31 05:22:23;;;;;;;;;;;20.30;88.40;;;;;;5055459;28;20041;-96
2022/08/31 05:24:48;;;;;;;;;;;20.30;89.40;;;;;;5055268;28;20035;-96
2022/08/31 05:27:14;;;;;;;;;;;20.40;89.50;;;;;;5055282;28;19932;-96
2022/08/31 05:29:39;;;;;;;;;;;20.50;88.90;;;;;;5054995;28;19939;-95
2022/08/31 05:32:05;;;;;;;;;;;20.40;88.30;;;;;;5054991;28;19947;-96
2022/08/31 05:34:31;;;;;;;;;;;20.40;87.80;;;;;;5055238;28;20410;-96
2022/08/31 05:36:57;;;;;;;;;;;20.40;88.20;;;;;;5054513;28;20052;-96
2022/08/31 05:39:23;;;;;;;;;;;20.40;88.80;;;;;;5055670;28;19944;-96
2022/08/31 05:41:48;;;;;;;;;;;20.30;89.20;;;;;;5055287;28;20019;-96
2022/08/31 05:44:14;;;;;;;;;;;20.40;88.80;;;;;;5054172;28;19938;-95
2022/08/31 05:46:40;;;;;;;;;;;20.40;88.60;;;;;;5055397;28;20025;-96
2022/08/31 05:49:06;;;;;;;;;;;20.50;88.10;;;;;;5053892;28;20406;-96
2022/08/31 05:53:58;;;;;;;;;;;20.50;88.10;;;;;;5028612;28;19939;-96
2022/08/31 05:57:55;;;;;;;;;;;20.80;87.90;;;;;;5027669;28;19950;-96
2022/08/31 06:00:21;;;;;;;;;;;20.80;88.00;;;;;;5027766;28;20028;-96
2022/08/31 06:02:46;;;;;;;;;;;20.90;87.90;;;;;;5026990;28;20306;-96
2022/08/31 06:06:48;;;;;;;;;;;21.00;87.70;;;;;;5028252;28;19954;-96
2022/08/31 06:09:14;;;;;;;;;;;21.00;87.70;;;;;;5027864;28;20034;-96
2022/08/31 06:11:41;;;;;;;;;;;21.10;87.80;;;;;;5028159;28;19939;-96
2022/08/31 06:14:08;;;;;;;;;;;21.00;87.50;;;;;;5027779;28;19941;-96
2022/08/31 06:16:34;;;;;;;;;;;20.90;87.70;;;;;;5027849;28;19942;-96
2022/08/31 06:19:02;;;;;;;;;;;20.90;87.40;;;;;;5027698;28;20425;-96
2022/08/31 06:21:32;;;;;;;;;;;21.10;88.00;;;;;;5027590;28;20022;-96
2022/08/31 06:23:59;;;;;;;;;;;21.20;87.00;;;;;;5027691;28;19941;-96
2022/08/31 06:26:26;;;;;;;;;;;21.30;86.40;;;;;;5027260;28;20009;-96
2022/08/31 06:28:53;;;;;;;;;;;21.30;85.90;;;;;;5027514;28;19939;-96
2022/08/31 06:31:22;;;;;;;;;;;21.40;85.10;;;;;;5027385;28;19965;-96
2022/08/31 06:33:49;;;;;;;;;;;21.40;85.30;;;;;;5027599;28;19940;-96
2022/08/31 06:36:16;;;;;;;;;;;21.50;85.30;;;;;;5027520;28;19961;-96
2022/08/31 06:38:42;;;;;;;;;;;21.50;83.90;;;;;;5027492;28;19942;-96
2022/08/31 06:41:11;;;;;;;;;;;21.50;84.20;;;;;;5027477;28;20026;-96
2022/08/31 06:43:37;;;;;;;;;;;21.50;83.30;;;;;;5027487;28;19949;-96
2022/08/31 06:46:03;;;;;;;;;;;21.50;83.90;;;;;;5028372;28;20057;-96
2022/08/31 06:48:28;;;;;;;;;;;21.60;83.90;;;;;;5028283;28;20312;-96
2022/08/31 06:50:55;;;;;;;;;;;21.60;82.70;;;;;;5027724;28;19945;-96
2022/08/31 06:53:21;;;;;;;;;;;21.70;82.90;;;;;;5027704;28;20421;-96
2022/08/31 06:55:47;;;;;;;;;;;21.80;83.00;;;;;;5027165;28;20402;-96
2022/08/31 06:58:13;;;;;;;;;;;21.80;82.60;;;;;;5027324;28;19991;-96
2022/08/31 07:00:39;;;;;;;;;;;21.90;83.00;;;;;;5022857;28;20391;-96
2022/08/31 07:03:22;;;;;;;;;;;22.00;83.00;;;;;;5028519;28;19942;-96
2022/08/31 07:05:50;;;;;;;;;;;22.00;81.80;;;;;;5043029;28;19974;-96
2022/08/31 07:08:17;;;;;;;;;;;22.20;81.70;;;;;;5065311;28;20006;-96
2022/08/31 07:10:48;;;;;;;;;;;22.20;81.80;;;;;;5064601;28;19944;-96
2022/08/31 07:13:15;;;;;;;;;;;22.30;80.70;;;;;;5066043;28;19948;-96
2022/08/31 07:15:41;;;;;;;;;;;22.30;80.00;;;;;;5063206;28;19947;-96
2022/08/31 07:18:07;;;;;;;;;;;22.40;80.00;;;;;;5034257;27;19954;-96
2022/08/31 07:20:32;;;;;;;;;;;22.50;79.60;;;;;;5033184;28;19981;-96
2022/08/31 07:22:58;;;;;;;;;;;22.60;78.00;;;;;;5035990;28;19967;-96
2022/08/31 07:25:25;;;;;;;;;;;22.60;77.80;;;;;;5034725;28;20029;-95
2022/08/31 07:27:54;;;;;;;;;;;22.80;78.30;;;;;;5031877;28;19969;-96
2022/08/31 07:30:22;;;;;;;;;;;22.90;76.60;;;;;;5033319;28;19940;-95
2022/08/31 07:32:49;;;;;;;;;;;23.00;76.60;;;;;;5032196;28;20009;-96
2022/08/31 07:35:16;;;;;;;;;;;23.00;75.50;;;;;;5043460;28;19962;-96
2022/08/31 07:43:12;;;;;;;;;;;23.10;76.60;;;;;;5043377;28;19988;-97
2022/08/31 17:12:37;;;;;;;;;;;26.90;61.30;;;;;;5260804;23;19972;-96
2022/08/31 17:15:05;;;;;;;;;;;26.80;61.30;;;;;;4851421;29;20026;-96
2022/08/31 17:18:02;;;;;;;;;;;26.80;61.60;;;;;;4865756;29;20006;-96
2022/08/31 17:20:40;;;;;;;;;;;26.70;61.90;;;;;;4855941;29;19944;-96
2022/08/31 17:23:10;;;;;;;;;;;26.70;62.20;;;;;;4848800;29;19950;-96
2022/08/31 17:25:45;;;;;;;;;;;26.70;62.20;;;;;;4850961;29;19968;-96
2022/08/31 17:28:18;;;;;;;;;;;26.70;62.10;;;;;;4850269;29;20026;-96
2022/08/31 17:30:49;;;;;;;;;;;26.60;62.40;;;;;;4850642;29;19941;-96
2022/08/31 17:33:27;;;;;;;;;;;26.50;62.50;;;;;;4846694;29;19956;-96
